createdAt,value
2022-12-05T05:39:30.074Z,23.99
2022-12-05T05:40:05.069Z,24.02
2022-12-05T05:40:40.828Z,24.01
2022-12-05T05:41:12.207Z,23.99
2022-12-05T05:41:43.599Z,24.01
2022-12-05T05:42:14.941Z,23.99
2022-12-05T05:42:46.283Z,23.98
2022-12-05T05:43:17.665Z,23.99
2022-12-05T05:43:49.053Z,24.01
2022-12-05T05:44:20.432Z,24.01
2022-12-05T05:44:51.883Z,24.00
2022-12-05T05:45:23.319Z,24.00
2022-12-05T05:45:54.700Z,24.01
2022-12-05T05:46:26.137Z,24.03
2022-12-05T05:46:57.631Z,24.01
2022-12-05T05:47:29.021Z,24.01
2022-12-05T05:48:00.398Z,24.02
2022-12-05T05:48:31.797Z,24.04
2022-12-05T05:49:03.164Z,24.01
2022-12-05T05:49:34.517Z,24.01
2022-12-05T05:50:06.000Z,24.03
2022-12-05T05:50:37.368Z,24.03
2022-12-05T05:51:08.766Z,24.04
2022-12-05T05:51:40.115Z,24.02
2022-12-05T05:52:11.584Z,24.03
2022-12-05T05:52:42.987Z,24.04
2022-12-05T05:53:14.448Z,24.05
2022-12-05T05:53:45.917Z,24.03
2022-12-05T05:54:17.281Z,24.04
2022-12-05T05:54:48.653Z,24.06
2022-12-05T05:55:20.187Z,24.04
2022-12-05T05:55:51.551Z,24.05
2022-12-05T05:56:22.920Z,24.05
2022-12-05T05:56:54.312Z,24.03
2022-12-05T05:57:25.745Z,24.02
2022-12-05T05:57:57.124Z,24.01
2022-12-05T05:58:28.480Z,24.02
2022-12-05T05:58:59.891Z,24.01
2022-12-05T05:59:31.307Z,24.02
2022-12-05T06:00:02.668Z,24.01
2022-12-05T06:00:34.110Z,24.02
2022-12-05T06:01:05.471Z,24.02
2022-12-05T06:01:36.868Z,24.03
2022-12-05T06:02:08.234Z,24.03
2022-12-05T06:02:39.747Z,24.00
2022-12-05T06:03:11.366Z,24.02
2022-12-05T06:03:42.901Z,24.01
2022-12-05T06:04:14.389Z,24.03
2022-12-05T06:04:45.791Z,24.01
2022-12-05T06:05:17.228Z,24.03
2022-12-05T06:05:52.984Z,24.04
2022-12-05T06:06:24.549Z,24.06
2022-12-05T06:06:55.903Z,24.04
2022-12-05T06:07:27.435Z,24.05
2022-12-05T06:07:58.840Z,24.05
2022-12-05T06:08:30.331Z,24.04
2022-12-05T06:09:01.727Z,24.03
2022-12-05T06:09:33.096Z,24.02
2022-12-05T06:10:04.466Z,24.04
2022-12-05T06:10:35.832Z,24.03
2022-12-05T06:11:07.213Z,24.02
2022-12-05T06:11:38.633Z,24.02
2022-12-05T06:12:09.971Z,24.05
2022-12-05T06:12:41.364Z,24.04
2022-12-05T06:13:12.780Z,24.02
2022-12-05T06:13:44.110Z,24.03
2022-12-05T06:14:15.461Z,24.04
2022-12-05T06:14:46.818Z,24.01
2022-12-05T06:15:18.215Z,24.02
2022-12-05T06:15:49.596Z,24.05
2022-12-05T06:16:21.167Z,24.03
2022-12-05T06:16:52.761Z,24.02
2022-12-05T06:17:24.205Z,24.03
2022-12-05T06:17:55.653Z,24.01
2022-12-05T06:18:27.033Z,24.00
2022-12-05T06:18:58.387Z,24.03
2022-12-05T06:19:29.745Z,24.04
2022-12-05T06:20:01.268Z,24.02
2022-12-05T06:20:32.810Z,24.02
2022-12-05T06:21:04.227Z,24.05
2022-12-05T06:21:35.701Z,24.04
2022-12-05T06:22:07.111Z,24.03
2022-12-05T06:22:38.483Z,24.02
2022-12-05T06:23:09.844Z,24.06
2022-12-05T06:23:41.285Z,24.03
2022-12-05T06:24:12.690Z,24.01
2022-12-05T06:24:44.077Z,24.01
2022-12-05T06:25:15.485Z,24.02
2022-12-05T06:25:46.867Z,24.05
2022-12-05T06:26:18.253Z,24.03
2022-12-05T06:26:49.634Z,24.01
2022-12-05T06:27:21.008Z,23.99
2022-12-05T06:27:52.410Z,24.03
2022-12-05T06:28:23.837Z,24.03
2022-12-05T06:28:55.209Z,24.01
2022-12-05T06:29:30.043Z,24.00
2022-12-05T06:30:03.843Z,24.02
2022-12-05T06:30:35.216Z,24.03
2022-12-05T06:31:06.649Z,24.04
2022-12-05T06:31:38.102Z,24.03
2022-12-05T06:32:09.634Z,24.02
2022-12-05T06:32:41.084Z,24.00
2022-12-05T06:33:12.411Z,24.02
2022-12-05T06:33:43.812Z,24.02
2022-12-05T06:34:15.202Z,24.05
2022-12-05T06:34:46.527Z,24.04
2022-12-05T06:35:17.918Z,24.00
2022-12-05T06:35:49.287Z,23.99
2022-12-05T06:36:20.662Z,23.99
2022-12-05T06:36:52.101Z,24.00
2022-12-05T06:37:23.515Z,24.01
2022-12-05T06:37:54.864Z,24.02
2022-12-05T06:38:26.243Z,24.01
2022-12-05T06:38:57.574Z,24.03
2022-12-05T06:39:28.999Z,24.03
2022-12-05T06:40:00.785Z,24.01
2022-12-05T06:40:32.367Z,24.00
2022-12-05T06:41:03.742Z,23.99
2022-12-05T06:41:35.123Z,24.02
2022-12-05T06:42:06.527Z,24.01
2022-12-05T06:42:37.958Z,23.99
2022-12-05T06:43:09.311Z,24.01
2022-12-05T06:43:40.654Z,24.02
2022-12-05T06:44:12.069Z,24.01
2022-12-05T06:44:43.499Z,24.01
2022-12-05T06:45:14.901Z,24.01
2022-12-05T06:45:46.338Z,23.99
2022-12-05T06:46:17.777Z,23.99
2022-12-05T06:46:49.197Z,24.02
2022-12-05T06:47:20.677Z,24.02
2022-12-05T06:47:52.229Z,24.02
2022-12-05T06:48:23.723Z,24.02
2022-12-05T06:48:55.144Z,24.02
2022-12-05T06:49:31.699Z,24.04
2022-12-05T06:50:04.073Z,24.03
2022-12-05T06:50:35.466Z,24.03
2022-12-05T06:51:06.870Z,24.06
2022-12-05T06:51:38.198Z,24.03
2022-12-05T06:52:09.597Z,24.02
2022-12-05T06:52:40.983Z,24.04
2022-12-05T06:53:12.430Z,24.04
2022-12-05T06:53:43.877Z,24.03
2022-12-05T06:54:15.471Z,24.01
2022-12-05T06:54:46.936Z,24.01
2022-12-05T06:55:18.435Z,24.03
2022-12-05T06:55:49.811Z,24.04
2022-12-05T06:56:21.205Z,24.03
2022-12-05T06:56:52.614Z,24.02
2022-12-05T06:57:23.984Z,24.01
2022-12-05T06:57:55.372Z,24.02
2022-12-05T06:58:26.803Z,24.01
2022-12-05T06:58:58.163Z,24.06
2022-12-05T06:59:29.514Z,24.01
2022-12-05T07:00:00.880Z,24.05
2022-12-05T07:00:32.282Z,24.04
2022-12-05T07:01:03.755Z,24.04
2022-12-05T07:01:35.290Z,24.04
2022-12-05T07:02:06.849Z,24.04
2022-12-05T07:02:38.292Z,24.04
2022-12-05T07:03:09.743Z,24.04
2022-12-05T07:03:41.111Z,24.03
2022-12-05T07:04:12.562Z,24.03
2022-12-05T07:04:43.893Z,24.06
2022-12-05T07:05:15.252Z,24.04
2022-12-05T07:05:46.656Z,24.07
2022-12-05T07:06:18.016Z,24.03
2022-12-05T07:06:51.102Z,24.02
2022-12-05T07:07:22.748Z,24.02
2022-12-05T07:07:54.210Z,24.01
2022-12-05T07:08:25.632Z,24.01
2022-12-05T07:08:57.027Z,23.99
2022-12-05T07:09:28.459Z,24.00
2022-12-05T07:10:00.097Z,24.02
2022-12-05T07:10:31.698Z,24.03
2022-12-05T07:11:03.116Z,24.02
2022-12-05T07:11:34.525Z,24.03
2022-12-05T07:12:05.910Z,24.00
2022-12-05T07:12:37.302Z,24.02
2022-12-05T07:13:10.904Z,24.02
2022-12-05T07:13:44.414Z,24.03
2022-12-05T07:14:38.703Z,24.00
2022-12-05T07:15:07.288Z,24.04
2022-12-05T07:15:38.661Z,24.01
2022-12-05T07:16:10.227Z,24.00
2022-12-05T07:16:41.739Z,24.00
2022-12-05T07:17:13.254Z,24.01
2022-12-05T07:17:44.609Z,24.03
2022-12-05T07:18:15.980Z,24.03
2022-12-05T07:18:47.364Z,24.01
2022-12-05T07:19:18.762Z,24.00
2022-12-05T07:19:50.120Z,24.03
2022-12-05T07:20:21.570Z,24.02
2022-12-05T07:21:11.272Z,24.05
2022-12-05T07:21:43.356Z,24.02
2022-12-05T07:22:16.098Z,24.02
2022-12-05T07:22:47.679Z,24.01
2022-12-05T07:23:19.066Z,24.01
2022-12-05T07:23:50.431Z,24.03
2022-12-05T07:24:21.884Z,24.04
2022-12-05T07:24:53.286Z,24.03
2022-12-05T07:25:24.821Z,24.03
2022-12-05T07:25:56.166Z,24.07
2022-12-05T07:26:27.541Z,24.04
2022-12-05T07:26:58.986Z,24.04
2022-12-05T07:27:30.365Z,24.01
2022-12-05T07:28:01.715Z,24.04
2022-12-05T07:28:33.086Z,24.01
2022-12-05T07:29:04.497Z,24.02
2022-12-05T07:29:35.931Z,24.01
2022-12-05T07:30:07.333Z,24.02
2022-12-05T07:30:38.700Z,24.01
2022-12-05T07:31:10.073Z,24.01
2022-12-05T07:31:41.511Z,24.01
2022-12-05T07:32:13.011Z,24.01
2022-12-05T07:32:44.423Z,24.00
2022-12-05T07:33:15.769Z,24.00
2022-12-05T07:33:47.203Z,24.00
2022-12-05T07:34:18.572Z,24.01
2022-12-05T07:34:54.930Z,24.03
2022-12-05T07:35:26.956Z,24.00
2022-12-05T07:35:58.325Z,24.01
2022-12-05T07:36:29.671Z,24.00
2022-12-05T07:37:00.994Z,24.03
2022-12-05T07:37:32.426Z,24.01
2022-12-05T07:38:03.827Z,24.00
2022-12-05T07:38:35.278Z,24.01
2022-12-05T07:39:06.654Z,24.01
2022-12-05T07:39:38.089Z,24.01
2022-12-05T07:40:09.527Z,24.04
2022-12-05T07:40:40.904Z,24.02
2022-12-05T07:41:13.718Z,24.00
2022-12-05T07:41:45.149Z,24.00
2022-12-05T07:42:16.557Z,23.99
2022-12-05T07:42:47.947Z,23.99
2022-12-05T07:43:19.342Z,24.01
2022-12-05T07:43:50.780Z,24.01
2022-12-05T07:44:22.150Z,24.03
2022-12-05T07:44:53.565Z,24.02
2022-12-05T07:45:25.011Z,24.02
2022-12-05T07:45:56.424Z,24.04
2022-12-05T07:46:27.942Z,24.04
2022-12-05T07:46:59.325Z,24.05
2022-12-05T07:47:30.785Z,24.03
2022-12-05T07:48:02.262Z,24.06
2022-12-05T07:48:33.621Z,24.01
2022-12-05T07:49:04.990Z,24.03
2022-12-05T07:49:36.375Z,24.02
2022-12-05T07:50:07.823Z,24.01
2022-12-05T07:50:39.270Z,24.02
2022-12-05T07:51:10.683Z,24.04
2022-12-05T07:51:42.141Z,24.03
2022-12-05T07:52:13.515Z,24.01
2022-12-05T07:52:44.919Z,24.04
2022-12-05T07:53:16.308Z,24.04
2022-12-05T07:53:47.682Z,24.03
2022-12-05T07:54:19.048Z,24.01
2022-12-05T07:54:50.421Z,24.03
2022-12-05T07:55:21.797Z,24.07
2022-12-05T07:55:53.251Z,24.05
2022-12-05T07:56:24.635Z,24.04
2022-12-05T07:56:56.195Z,24.05
2022-12-05T07:57:27.615Z,24.04
2022-12-05T07:57:58.976Z,24.03
2022-12-05T07:58:30.396Z,24.04
2022-12-05T07:59:01.780Z,24.06
2022-12-05T07:59:33.143Z,24.05
2022-12-05T08:00:04.497Z,24.02
2022-12-05T08:00:35.886Z,24.02
2022-12-05T08:01:07.395Z,24.00
2022-12-05T08:01:38.888Z,24.01
2022-12-05T08:02:10.425Z,24.03
2022-12-05T08:02:41.855Z,24.02
2022-12-05T08:03:13.304Z,24.05
2022-12-05T08:03:44.702Z,24.03
2022-12-05T08:04:16.176Z,24.04
2022-12-05T08:04:47.574Z,24.02
2022-12-05T08:05:18.980Z,24.04
2022-12-05T08:05:50.321Z,24.03
2022-12-05T08:06:21.827Z,24.04
2022-12-05T08:06:53.247Z,24.01
2022-12-05T08:07:24.624Z,24.01
2022-12-05T08:07:56.110Z,24.02
2022-12-05T08:08:27.591Z,24.04
2022-12-05T08:08:58.966Z,24.03
2022-12-05T08:09:30.319Z,24.04
2022-12-05T08:10:01.696Z,24.06
2022-12-05T08:10:33.072Z,24.06
2022-12-05T08:11:04.411Z,24.05
2022-12-05T08:11:35.795Z,24.02
2022-12-05T08:12:07.234Z,24.03
2022-12-05T08:12:38.624Z,24.04
2022-12-05T08:13:09.970Z,24.04
2022-12-05T08:13:41.354Z,24.08
2022-12-05T08:14:12.795Z,24.07
2022-12-05T08:14:44.205Z,24.07
2022-12-05T08:15:15.638Z,24.09
2022-12-05T08:15:46.989Z,24.05
2022-12-05T08:16:18.435Z,24.06
2022-12-05T08:16:49.927Z,24.07
2022-12-05T08:17:21.438Z,24.02
2022-12-05T08:17:52.886Z,24.06
2022-12-05T08:18:27.293Z,24.03
2022-12-05T08:18:59.043Z,24.01
2022-12-05T08:19:30.482Z,24.02
2022-12-05T08:20:01.836Z,24.03
2022-12-05T08:20:33.218Z,24.04
2022-12-05T08:21:04.625Z,24.00
2022-12-05T08:21:35.992Z,24.01
2022-12-05T08:22:07.330Z,24.00
2022-12-05T08:22:38.706Z,23.99
2022-12-05T08:23:10.141Z,24.00
2022-12-05T08:23:41.506Z,24.04
2022-12-05T08:24:12.904Z,24.05
2022-12-05T08:24:44.299Z,24.03
2022-12-05T08:25:15.665Z,24.03
2022-12-05T08:25:47.091Z,24.04
2022-12-05T08:26:18.513Z,24.03
2022-12-05T08:26:49.890Z,24.04
2022-12-05T08:27:21.246Z,24.02
2022-12-05T08:27:52.593Z,24.03
2022-12-05T08:28:24.053Z,24.05
2022-12-05T08:28:55.448Z,24.02
2022-12-05T08:29:26.813Z,24.02
2022-12-05T08:29:58.374Z,24.02
2022-12-05T08:30:29.886Z,24.02
2022-12-05T08:31:01.358Z,24.02
2022-12-05T08:31:32.831Z,24.04
2022-12-05T08:32:04.269Z,24.03
2022-12-05T08:32:35.687Z,24.02
2022-12-05T08:33:07.073Z,24.02
2022-12-05T08:33:38.564Z,24.01
2022-12-05T08:34:09.943Z,24.02
2022-12-05T08:34:41.360Z,24.04
2022-12-05T08:35:12.748Z,24.02
2022-12-05T08:35:44.079Z,24.07
2022-12-05T08:36:15.554Z,24.04
2022-12-05T08:36:46.985Z,24.05
2022-12-05T08:37:18.289Z,24.07
2022-12-05T08:37:49.699Z,24.04
2022-12-05T08:38:21.091Z,24.05
2022-12-05T08:38:52.491Z,24.03
2022-12-05T08:39:23.842Z,24.03
2022-12-05T08:39:55.385Z,24.03
2022-12-05T08:40:26.886Z,24.03
2022-12-05T08:40:58.259Z,24.04
2022-12-05T08:41:29.650Z,24.05
2022-12-05T08:42:01.078Z,24.06
2022-12-05T08:42:32.436Z,24.09
2022-12-05T08:43:03.816Z,24.08
2022-12-05T08:43:35.187Z,24.09
2022-12-05T08:44:06.597Z,24.06
2022-12-05T08:44:38.006Z,24.03
2022-12-05T08:45:09.379Z,24.06
2022-12-05T08:45:40.792Z,24.07
2022-12-05T08:46:12.244Z,24.08
2022-12-05T08:46:43.713Z,24.07
2022-12-05T08:47:15.205Z,24.05
2022-12-05T08:47:46.587Z,24.05
2022-12-05T08:48:18.032Z,24.04
2022-12-05T08:48:49.424Z,24.03
2022-12-05T08:49:20.850Z,24.04
2022-12-05T08:49:52.229Z,24.06
2022-12-05T08:50:23.612Z,24.02
2022-12-05T08:50:54.975Z,24.03
2022-12-05T08:51:26.342Z,24.04
2022-12-05T08:51:57.768Z,24.03
2022-12-05T08:52:29.171Z,24.04
2022-12-05T08:53:00.558Z,24.00
2022-12-05T08:53:31.911Z,24.01
2022-12-05T08:54:03.266Z,24.02
2022-12-05T08:54:34.694Z,24.01
2022-12-05T08:55:06.061Z,24.03
2022-12-05T08:55:37.419Z,24.02
2022-12-05T08:56:08.784Z,24.01
2022-12-05T08:56:40.155Z,24.02
2022-12-05T08:57:11.593Z,24.04
2022-12-05T08:57:42.956Z,24.05
2022-12-05T08:58:14.343Z,24.08
2022-12-05T08:58:45.779Z,24.06
2022-12-05T08:59:17.166Z,24.06
2022-12-05T08:59:48.657Z,24.03
2022-12-05T09:00:20.087Z,24.03
2022-12-05T09:00:51.542Z,24.03
2022-12-05T09:01:23.036Z,24.03
2022-12-05T09:01:54.560Z,24.06
2022-12-05T09:02:26.070Z,24.06
2022-12-05T09:02:57.487Z,24.07
2022-12-05T09:03:28.934Z,24.05
2022-12-05T09:04:00.338Z,24.05
2022-12-05T09:04:31.739Z,24.04
2022-12-05T09:05:25.715Z,24.04
2022-12-05T09:05:55.078Z,24.02
2022-12-05T09:06:26.482Z,24.05
2022-12-05T09:06:57.891Z,24.04
2022-12-05T09:07:29.374Z,24.04
2022-12-05T09:08:00.781Z,24.05
2022-12-05T09:08:32.143Z,24.03
2022-12-05T09:09:03.540Z,24.01
2022-12-05T09:09:34.890Z,24.02
2022-12-05T09:10:06.359Z,23.98
2022-12-05T09:10:37.744Z,24.00
2022-12-05T09:11:09.105Z,24.03
2022-12-05T09:11:40.520Z,24.04
2022-12-05T09:12:11.877Z,24.03
2022-12-05T09:12:43.297Z,24.03
2022-12-05T09:13:14.694Z,24.03
2022-12-05T09:13:46.130Z,24.03
2022-12-05T09:14:17.481Z,24.04
2022-12-05T09:14:48.858Z,24.07
2022-12-05T09:15:20.261Z,24.04
2022-12-05T09:15:51.683Z,24.05
2022-12-05T09:16:23.144Z,24.04
2022-12-05T09:16:54.537Z,24.03
2022-12-05T09:17:25.987Z,24.02
2022-12-05T09:17:57.359Z,24.03
2022-12-05T09:18:28.820Z,24.03
2022-12-05T09:19:00.334Z,24.04
2022-12-05T09:19:31.765Z,24.07
2022-12-05T09:20:03.135Z,24.08
2022-12-05T09:20:34.657Z,24.08
2022-12-05T09:21:06.065Z,24.07
2022-12-05T09:21:37.414Z,24.04
2022-12-05T09:22:08.801Z,24.07
2022-12-05T09:22:40.199Z,24.09
2022-12-05T09:23:15.849Z,24.09
2022-12-05T09:23:47.651Z,24.07
2022-12-05T09:24:19.050Z,24.06
2022-12-05T09:24:50.443Z,24.09
2022-12-05T09:25:21.816Z,24.05
2022-12-05T09:25:53.206Z,24.05
2022-12-05T09:26:24.565Z,24.05
2022-12-05T09:26:55.960Z,24.09
2022-12-05T09:27:27.301Z,24.08
2022-12-05T09:27:58.704Z,24.07
2022-12-05T09:28:30.139Z,24.08
2022-12-05T09:29:01.514Z,24.02
2022-12-05T09:29:32.878Z,24.04
2022-12-05T09:30:04.358Z,24.07
2022-12-05T09:30:35.705Z,24.07
2022-12-05T09:31:07.110Z,24.06
2022-12-05T09:31:38.683Z,24.05
2022-12-05T09:32:10.082Z,24.06
2022-12-05T09:32:41.528Z,24.05
2022-12-05T09:33:12.879Z,24.05
2022-12-05T09:33:44.299Z,24.04
2022-12-05T09:34:15.725Z,24.06
2022-12-05T09:34:47.105Z,24.03
2022-12-05T09:35:18.466Z,24.06
2022-12-05T09:35:49.838Z,24.04
2022-12-05T09:36:21.225Z,24.04
2022-12-05T09:37:05.445Z,24.02
2022-12-05T09:37:41.901Z,24.05
2022-12-05T09:38:13.289Z,24.06
2022-12-05T09:38:44.690Z,24.04
2022-12-05T09:39:16.135Z,24.04
2022-12-05T09:39:47.511Z,24.07
2022-12-05T09:40:18.897Z,24.06
2022-12-05T09:40:50.287Z,24.02
2022-12-05T09:41:21.697Z,24.03
2022-12-05T09:41:53.091Z,24.03
2022-12-05T09:42:24.448Z,24.03
2022-12-05T09:42:55.833Z,24.05
2022-12-05T09:43:27.229Z,24.06
2022-12-05T09:43:58.698Z,24.07
2022-12-05T09:44:30.512Z,24.05
2022-12-05T09:45:02.132Z,24.06
2022-12-05T09:45:33.601Z,24.05
2022-12-05T09:46:05.068Z,24.04
2022-12-05T09:46:36.523Z,24.04
2022-12-05T09:47:07.914Z,24.06
2022-12-05T09:47:39.375Z,24.04
2022-12-05T09:48:10.750Z,24.05
2022-12-05T09:48:42.139Z,24.02
2022-12-05T09:49:13.611Z,24.03
2022-12-05T09:49:44.972Z,24.03
2022-12-05T09:50:16.421Z,24.04
2022-12-05T09:50:47.767Z,24.04
2022-12-05T09:51:19.148Z,24.05
2022-12-05T09:51:55.083Z,24.09
2022-12-05T09:52:26.886Z,24.06
2022-12-05T09:52:58.365Z,24.05
2022-12-05T09:53:29.725Z,24.04
2022-12-05T09:54:01.096Z,24.09
2022-12-05T09:54:32.483Z,24.06
2022-12-05T09:55:03.905Z,24.07
2022-12-05T09:55:35.304Z,24.03
2022-12-05T09:56:06.695Z,24.05
2022-12-05T09:56:38.116Z,24.08
2022-12-05T09:57:09.467Z,24.08
2022-12-05T09:57:40.881Z,24.07
2022-12-05T09:58:12.302Z,24.07
2022-12-05T09:58:43.665Z,24.07
2022-12-05T09:59:15.060Z,24.06
2022-12-05T09:59:46.426Z,24.08
2022-12-05T10:00:17.789Z,24.09
2022-12-05T10:00:49.245Z,24.06
2022-12-05T10:01:20.649Z,24.06
2022-12-05T10:01:52.181Z,24.06
2022-12-05T10:02:23.606Z,24.07
2022-12-05T10:02:54.980Z,24.06
2022-12-05T10:03:26.436Z,24.06
2022-12-05T10:03:57.801Z,24.07
2022-12-05T10:04:29.206Z,24.06
2022-12-05T10:05:01.262Z,24.03
2022-12-05T10:05:32.776Z,24.03
2022-12-05T10:06:04.146Z,24.04
2022-12-05T10:06:35.517Z,24.09
2022-12-05T10:07:06.889Z,24.05
2022-12-05T10:07:38.303Z,24.09
2022-12-05T10:08:09.742Z,24.03
2022-12-05T10:08:41.148Z,24.04
2022-12-05T10:09:12.555Z,24.08
2022-12-05T10:09:43.910Z,24.05
2022-12-05T10:10:20.017Z,24.06
2022-12-05T10:10:51.966Z,24.06
2022-12-05T10:11:23.334Z,24.05
2022-12-05T10:11:54.722Z,24.06
2022-12-05T10:12:26.094Z,24.04
2022-12-05T10:12:57.583Z,24.06
2022-12-05T10:13:28.939Z,24.07
2022-12-05T10:14:00.352Z,24.04
2022-12-05T10:14:31.778Z,24.07
2022-12-05T10:15:03.166Z,24.09
2022-12-05T10:15:34.681Z,24.07
2022-12-05T10:16:06.105Z,24.04
2022-12-05T10:16:37.534Z,24.05
2022-12-05T10:17:08.937Z,24.02
2022-12-05T10:17:40.326Z,24.04
2022-12-05T10:18:11.700Z,24.03
2022-12-05T10:18:43.120Z,24.03
2022-12-05T10:19:14.721Z,24.03
2022-12-05T10:19:46.080Z,24.02
2022-12-05T10:20:17.514Z,24.04
2022-12-05T10:20:48.928Z,24.05
2022-12-05T10:21:20.384Z,24.05
2022-12-05T10:21:51.755Z,24.05
2022-12-05T10:22:23.180Z,24.07
2022-12-05T10:22:54.572Z,24.04
2022-12-05T10:23:55.452Z,24.03
2022-12-05T10:24:17.455Z,24.06
2022-12-05T10:24:48.819Z,24.06
2022-12-05T10:25:20.203Z,24.05
2022-12-05T10:25:51.575Z,24.05
2022-12-05T10:26:22.962Z,24.06
2022-12-05T10:26:54.314Z,24.05
2022-12-05T10:27:25.704Z,24.07
2022-12-05T10:27:57.048Z,24.08
2022-12-05T10:28:28.434Z,24.08
2022-12-05T10:28:59.826Z,24.08
2022-12-05T10:29:31.256Z,24.06
2022-12-05T10:30:02.689Z,24.05
2022-12-05T10:30:34.072Z,24.05
2022-12-05T10:31:05.488Z,24.06
2022-12-05T10:31:36.985Z,24.05
2022-12-05T10:32:08.415Z,24.04
2022-12-05T10:32:39.830Z,24.04
2022-12-05T10:33:11.225Z,24.01
2022-12-05T10:33:42.642Z,24.02
2022-12-05T10:34:13.997Z,24.00
2022-12-05T10:34:45.453Z,24.02
2022-12-05T10:35:16.860Z,24.04
2022-12-05T10:35:48.218Z,24.04
2022-12-05T10:36:19.574Z,24.04
2022-12-05T10:36:51.018Z,24.00
2022-12-05T10:37:22.361Z,24.02
2022-12-05T10:37:53.721Z,24.03
2022-12-05T10:38:25.064Z,24.04
2022-12-05T10:38:56.418Z,24.04
2022-12-05T10:39:27.773Z,24.07
2022-12-05T10:39:59.202Z,24.08
2022-12-05T10:40:30.641Z,24.08
2022-12-05T10:41:02.037Z,24.10
2022-12-05T10:41:33.474Z,24.06
2022-12-05T10:42:04.794Z,24.04
2022-12-05T10:42:36.191Z,24.03
2022-12-05T10:43:07.576Z,24.04
2022-12-05T10:43:38.901Z,24.08
2022-12-05T10:44:10.262Z,24.05
2022-12-05T10:44:41.615Z,24.05
2022-12-05T10:45:13.045Z,24.06
2022-12-05T10:45:44.405Z,24.04
2022-12-05T10:46:17.407Z,24.05
2022-12-05T10:46:49.018Z,24.05
2022-12-05T10:47:20.469Z,24.06
2022-12-05T10:47:51.823Z,24.05
2022-12-05T10:48:23.244Z,24.03
2022-12-05T10:48:54.666Z,24.04
2022-12-05T10:49:26.023Z,24.07
2022-12-05T10:49:57.370Z,24.09
2022-12-05T10:50:28.917Z,24.11
2022-12-05T10:51:00.316Z,24.08
2022-12-05T10:51:37.355Z,24.09
2022-12-05T10:52:09.220Z,24.08
2022-12-05T10:52:40.599Z,24.05
2022-12-05T10:53:12.025Z,24.04
2022-12-05T10:53:43.403Z,24.05
2022-12-05T10:54:14.849Z,24.08
2022-12-05T10:54:46.235Z,24.12
2022-12-05T10:55:17.634Z,24.11
2022-12-05T10:56:06.857Z,24.11
2022-12-05T10:56:40.476Z,24.07
2022-12-05T10:57:11.850Z,24.08
2022-12-05T10:57:43.283Z,24.08
2022-12-05T10:58:17.594Z,24.09
2022-12-05T10:58:49.392Z,24.07
2022-12-05T10:59:20.985Z,24.06
2022-12-05T10:59:52.921Z,24.05
2022-12-05T11:00:25.150Z,24.07
2022-12-05T11:00:57.577Z,24.04
2022-12-05T11:01:29.870Z,24.06
2022-12-05T11:02:01.856Z,24.06
2022-12-05T11:02:33.775Z,24.08
2022-12-05T11:03:05.102Z,24.05
2022-12-05T11:03:36.515Z,24.05
2022-12-05T11:04:13.378Z,24.06
2022-12-05T11:04:45.255Z,24.03
2022-12-05T11:05:16.745Z,24.04
2022-12-05T11:05:48.191Z,24.02
2022-12-05T11:06:19.633Z,24.05
2022-12-05T11:06:51.009Z,24.06
2022-12-05T11:07:22.392Z,24.07
2022-12-05T11:07:53.833Z,24.05
2022-12-05T11:08:48.291Z,24.07
2022-12-05T11:09:16.694Z,24.11
2022-12-05T11:09:48.063Z,24.03
2022-12-05T11:10:23.644Z,24.06
2022-12-05T11:10:57.926Z,24.04
2022-12-05T11:11:29.360Z,24.03
2022-12-05T11:12:00.701Z,24.03
2022-12-05T11:12:32.106Z,24.06
2022-12-05T11:13:03.558Z,24.07
2022-12-05T11:13:35.066Z,24.06
2022-12-05T11:14:06.501Z,24.08
2022-12-05T11:14:37.901Z,24.06
2022-12-05T11:15:09.245Z,24.06
2022-12-05T11:15:40.646Z,24.04
2022-12-05T11:16:12.097Z,24.04
2022-12-05T11:16:43.595Z,24.05
2022-12-05T11:17:15.046Z,24.03
2022-12-05T11:17:46.425Z,24.02
2022-12-05T11:18:17.767Z,24.05
2022-12-05T11:18:49.155Z,24.04
2022-12-05T11:19:20.560Z,24.08
2022-12-05T11:19:51.978Z,24.06
2022-12-05T11:20:23.444Z,24.04
2022-12-05T11:20:54.786Z,24.04
2022-12-05T11:21:26.157Z,24.03
2022-12-05T11:21:57.506Z,24.05
2022-12-05T11:22:28.912Z,24.05
2022-12-05T11:23:00.271Z,24.04
2022-12-05T11:23:31.676Z,24.09
2022-12-05T11:24:03.061Z,24.09
2022-12-05T11:24:34.424Z,24.06
2022-12-05T11:25:05.913Z,24.06
2022-12-05T11:25:37.311Z,24.08
2022-12-05T11:26:08.757Z,24.09
2022-12-05T11:26:40.152Z,24.10
2022-12-05T11:27:11.529Z,24.07
2022-12-05T11:27:42.922Z,24.07
2022-12-05T11:28:14.348Z,24.11
2022-12-05T11:28:45.752Z,24.08
2022-12-05T11:29:17.095Z,24.04
2022-12-05T11:29:48.456Z,24.03
2022-12-05T11:30:19.872Z,24.07
2022-12-05T11:30:51.304Z,24.08
2022-12-05T11:31:22.976Z,24.06
2022-12-05T11:31:54.403Z,24.08
2022-12-05T11:32:25.792Z,24.06
2022-12-05T11:32:57.160Z,24.05
2022-12-05T11:33:28.539Z,24.05
2022-12-05T11:34:02.145Z,24.06
2022-12-05T11:34:33.794Z,24.10
2022-12-05T11:35:05.266Z,24.09
2022-12-05T11:35:36.666Z,24.07
2022-12-05T11:36:08.053Z,24.09
2022-12-05T11:36:39.452Z,24.09
2022-12-05T11:37:10.840Z,24.10
2022-12-05T11:37:42.191Z,24.09
2022-12-05T11:38:13.555Z,24.09
2022-12-05T11:38:44.925Z,24.08
2022-12-05T11:39:16.273Z,24.10
2022-12-05T11:39:47.656Z,24.11
2022-12-05T11:40:21.630Z,24.09
2022-12-05T11:40:56.644Z,24.09
2022-12-05T11:41:28.085Z,24.07
2022-12-05T11:41:59.525Z,24.07
2022-12-05T11:42:30.949Z,24.07
2022-12-05T11:43:02.358Z,24.07
2022-12-05T11:43:33.720Z,24.07
2022-12-05T11:44:05.189Z,24.06
2022-12-05T11:44:36.576Z,24.06
2022-12-05T11:45:07.974Z,24.05
2022-12-05T11:45:39.361Z,24.07
2022-12-05T11:46:10.794Z,24.07
2022-12-05T11:46:42.214Z,24.07
2022-12-05T11:47:13.757Z,24.08
2022-12-05T11:47:45.299Z,24.08
2022-12-05T11:48:16.681Z,24.07
2022-12-05T11:48:48.118Z,24.06
2022-12-05T11:49:19.505Z,24.07
2022-12-05T11:49:50.966Z,24.05
2022-12-05T11:50:22.340Z,24.06
2022-12-05T11:50:53.713Z,24.05
2022-12-05T11:51:25.116Z,24.07
2022-12-05T11:51:56.495Z,24.08
2022-12-05T11:52:27.856Z,24.08
2022-12-05T11:52:59.625Z,24.09
2022-12-05T11:53:30.959Z,24.07
2022-12-05T11:54:02.314Z,24.06
2022-12-05T11:55:03.977Z,24.08
2022-12-05T11:55:25.106Z,24.07
2022-12-05T11:55:56.513Z,24.08
2022-12-05T11:56:27.861Z,24.07
2022-12-05T11:56:59.207Z,24.07
2022-12-05T11:57:30.554Z,24.06
2022-12-05T11:58:01.909Z,24.05
2022-12-05T11:58:33.273Z,24.05
2022-12-05T11:59:04.700Z,24.06
2022-12-05T11:59:36.057Z,24.06
2022-12-05T12:00:07.418Z,24.04
2022-12-05T12:00:38.864Z,24.05
2022-12-05T12:01:10.234Z,24.04
2022-12-05T12:01:41.589Z,24.03
2022-12-05T12:02:13.076Z,24.04
2022-12-05T12:02:44.613Z,24.05
2022-12-05T12:03:16.131Z,24.06
2022-12-05T12:03:47.668Z,24.07
2022-12-05T12:04:19.064Z,24.06
2022-12-05T12:04:50.486Z,24.05
2022-12-05T12:05:21.991Z,24.05
2022-12-05T12:05:53.397Z,24.04
2022-12-05T12:06:24.759Z,24.06
2022-12-05T12:06:56.224Z,24.08
2022-12-05T12:07:27.685Z,24.09
2022-12-05T12:07:59.254Z,24.10
2022-12-05T12:08:30.741Z,24.08
2022-12-05T12:09:02.194Z,24.09
2022-12-05T12:09:33.578Z,24.10
2022-12-05T12:10:09.623Z,24.07
2022-12-05T12:10:41.473Z,24.08
2022-12-05T12:11:12.976Z,24.08
2022-12-05T12:11:44.354Z,24.09
2022-12-05T12:12:15.729Z,24.06
2022-12-05T12:12:47.083Z,24.08
2022-12-05T12:13:18.495Z,24.07
2022-12-05T12:13:49.855Z,24.10
2022-12-05T12:14:21.245Z,24.09
2022-12-05T12:14:52.634Z,24.08
2022-12-05T12:15:23.990Z,24.11
2022-12-05T12:15:55.443Z,24.09
2022-12-05T12:16:26.927Z,24.08
2022-12-05T12:16:58.364Z,24.10
2022-12-05T12:17:29.931Z,24.11
2022-12-05T12:18:01.338Z,24.11
2022-12-05T12:18:32.748Z,24.08
2022-12-05T12:19:04.159Z,24.08
2022-12-05T12:19:35.513Z,24.07
2022-12-05T12:20:06.913Z,24.08
2022-12-05T12:20:38.319Z,24.09
2022-12-05T12:21:09.719Z,24.08
2022-12-05T12:21:41.140Z,24.05
2022-12-05T12:22:12.493Z,24.06
2022-12-05T12:22:43.880Z,24.07
2022-12-05T12:23:15.214Z,24.08
2022-12-05T12:23:46.578Z,24.09
2022-12-05T12:24:18.036Z,24.07
2022-12-05T12:24:49.424Z,24.05
2022-12-05T12:25:20.803Z,24.05
2022-12-05T12:25:52.235Z,24.06
2022-12-05T12:26:23.659Z,24.09
2022-12-05T12:26:55.102Z,24.08
2022-12-05T12:27:26.477Z,24.08
2022-12-05T12:28:04.208Z,24.07